Date,TemperatureHighF,TemperatureAvgF,TemperatureLowF,DewpointHighF,DewpointAvgF,DewpointLowF,HumidityHigh,HumidityAvg,HumidityLow,PressureMaxIn,PressureMinIn,WindSpeedMaxMPH,WindSpeedAvgMPH,GustSpeedMaxMPH,PrecipitationSumIn
2013-2-1,59,48,40,34,28,25,57,48,33,30.31,30.19,2,0,0,0.00
2013-2-2,57,48,44,36,31,27,70,50,40,30.33,30.20,0,0,0,0.03
2013-2-3,54,45,39,41,35,29,88,70,52,30.21,30.09,2,0,0,0.08
2013-2-4,59,47,39,33,25,18,63,43,26,30.18,30.05,1,0,0,0.00
2013-2-5,57,48,42,34,25,16,54,42,27,30.10,29.96,11,2,0,0.00
2013-2-6,56,44,34,29,23,5,76,44,26,30.18,29.92,5,0,0,0.00
2013-2-7,52,43,32,37,22,5,90,49,23,30.16,29.92,26,8,0,0.00
2013-2-8,32,27,24,29,24,19,90,89,87,30.03,29.90,18,6,0,0.00
2013-2-9,35,26,21,27,22,18,87,82,64,30.21,30.03,7,1,0,0.93
2013-2-10,38,29,23,27,23,18,86,78,54,30.19,30.08,6,0,0,0.44
2013-2-11,40,30,24,24,13,3,86,54,25,30.35,30.13,3,1,0,0.32
2013-2-12,45,35,26,17,11,5,46,38,28,30.48,30.32,4,0,0,0.32
2013-2-13,52,41,31,20,15,9,45,35,26,30.40,30.25,2,0,0,0.17
2013-2-14,57,45,37,26,21,17,51,39,27,30.32,30.19,1,0,0,0.01
2013-2-15,58,45,38,23,17,10,47,33,21,30.39,30.23,3,0,0,0.00
2013-2-16,63,48,37,22,12,-1,39,24,12,30.35,30.05,2,0,0,0.00
2013-2-17,57,47,38,25,16,7,52,30,20,30.05,29.88,5,1,0,0.00
2013-2-18,53,43,38,32,21,15,79,44,25,30.08,29.90,17,6,0,0.00
2013-2-19,38,31,27,29,27,20,91,88,47,29.96,29.74,14,6,0,0.00
2013-2-20,37,27,20,30,24,17,91,86,69,30.13,29.73,10,1,0,0.38
2013-2-21,37,30,25,26,21,15,88,72,50,30.24,30.05,7,1,0,0.42
2013-2-22,48,35,25,25,19,14,80,54,29,30.34,30.22,1,0,0,0.39
2013-2-23,54,40,31,29,23,12,74,52,25,30.22,29.95,6,1,0,0.09
2013-2-24,43,33,25,12,5,-1,45,31,20,30.34,30.01,7,2,0,0.00
2013-2-25,55,40,29,17,8,1,37,27,18,30.38,30.10,5,0,0,0.00
2013-2-26,54,40,29,19,12,4,62,34,23,30.27,30.06,1,0,0,0.00
2013-2-27,50,40,31,13,7,2,34,26,19,30.43,30.23,5,1,0,0.00
2013-2-28,58,44,34,16,9,1,28,24,17,30.48,30.38,2,0,0,0.00